Wind From: 13-12-2017 10:08 Until: 14-12-2017 06:00 warning for: Wind Level: Yellow info button

Although rather usual in this region, locally or potentially dangerous phenomena are expected. (such as local winds, summer thunderstorms, rising streams or high waves) Be aware and pay attention to the latest weather updates, especially if you carry out activities exposed to weather or close to a stream or shoreline. 


Meteo18 Weather Cam more information Meteo18 Weather Cam


Thunder radar more information blitzortung!


Rain radar more information rain snow radar


Visit our other weather sites:

Template documentation
and downloads

And another site



Weather Underground History page Text

Daily Summary for September 13, 2017 Units:  Both    English   Metric
« Previous Day
Next Day »
Daily Weekly Monthly Yearly Custom
  High: Low: Average:
Temperature: 72.9 °F /  22.7 °C 54.3 °F /  12.4 °C 63.1 °F /  17.3 °C
Dew Point: 63.3 °F /  17.4 °C 48.4 °F /  9.1 °C 57.9 °F /  14.4 °C
Humidity: 96 % 66 % 84 %
Wind Speed: 27 mph /  43.4 km/h - 11.8 mph /  19 km/h
Wind Gust: 35 mph /  56.3 km/h - -
Wind:- - SW
Pressure: 30 in /  1016.8 hPa 29.9 in /  1011.4 hPa -
Precipitation: 0.15 in /  3.8 mm    
Historical Graphs
 
 
Tabular Data for September 13, 2017
Time Temperature Dew Point Pressure Wind Wind Speed Wind Gust Humidity Rainfall Rate (Hourly)
00:02 54.5 °F /  12.5 °C 48.4 °F /  9.1 °C 30 in /  1016.5 hPa SW 6 mph /  9.7 km/h 8 mph /  12.9 km/h 80 % 0 in /  0.0 mm
00:07 54.3 °F /  12.4 °C 48.6 °F /  9.2 °C 30 in /  1016.8 hPa SW 4 mph /  6.4 km/h 9 mph /  14.5 km/h 81 % 0 in /  0.0 mm
00:12 54.3 °F /  12.4 °C 48.9 °F /  9.4 °C 30 in /  1016.8 hPa SSW 2 mph /  3.2 km/h 9 mph /  14.5 km/h 82 % 0 in /  0.0 mm
00:17 54.5 °F /  12.5 °C 49.1 °F /  9.5 °C 30 in /  1016.5 hPa SSW 6 mph /  9.7 km/h 9 mph /  14.5 km/h 82 % 0 in /  0.0 mm
00:22 54.7 °F /  12.6 °C 49.3 °F /  9.6 °C 30 in /  1016.5 hPa SSW 6 mph /  9.7 km/h 8 mph /  12.9 km/h 82 % 0 in /  0.0 mm
00:27 54.7 °F /  12.6 °C 49.3 °F /  9.6 °C 30 in /  1016.5 hPa SW 7 mph /  11.3 km/h 8 mph /  12.9 km/h 82 % 0 in /  0.0 mm
00:32 54.7 °F /  12.6 °C 49.3 °F /  9.6 °C 30 in /  1016.5 hPa WSW 4 mph /  6.4 km/h 8 mph /  12.9 km/h 82 % 0 in /  0.0 mm
00:37 54.9 °F /  12.7 °C 49.5 °F /  9.7 °C 30 in /  1016.5 hPa SW 3 mph /  4.8 km/h 8 mph /  12.9 km/h 82 % 0 in /  0.0 mm
00:42 54.9 °F /  12.7 °C 49.5 °F /  9.7 °C 30 in /  1016.5 hPa SSE 6 mph /  9.7 km/h 9 mph /  14.5 km/h 82 % 0 in /  0.0 mm
00:52 54.9 °F /  12.7 °C 49.5 °F /  9.7 °C 30 in /  1016.5 hPa SW 4 mph /  6.4 km/h 11 mph /  17.7 km/h 82 % 0 in /  0.0 mm
00:57 55 °F /  12.8 °C 49.6 °F /  9.8 °C 30 in /  1016.5 hPa SW 7 mph /  11.3 km/h 12 mph /  19.3 km/h 82 % 0 in /  0.0 mm
01:02 55.2 °F /  12.9 °C 49.8 °F /  9.9 °C 30 in /  1016.1 hPa SW 9 mph /  14.5 km/h 12 mph /  19.3 km/h 82 % 0 in /  0.0 mm
01:07 55.2 °F /  12.9 °C 49.8 °F /  9.9 °C 30 in /  1016.1 hPa SW 5 mph /  8.0 km/h 13 mph /  20.9 km/h 82 % 0 in /  0.0 mm
01:12 55.4 °F /  13.0 °C 50 °F /  10.0 °C 30 in /  1016.1 hPa South 6 mph /  9.7 km/h 13 mph /  20.9 km/h 82 % 0 in /  0.0 mm
01:17 55.6 °F /  13.1 °C 49.8 °F /  9.9 °C 30 in /  1016.1 hPa SW 4 mph /  6.4 km/h 14 mph /  22.5 km/h 81 % 0 in /  0.0 mm
01:22 55.6 °F /  13.1 °C 49.8 °F /  9.9 °C 30 in /  1016.1 hPa SW 7 mph /  11.3 km/h 14 mph /  22.5 km/h 81 % 0 in /  0.0 mm
01:27 55.8 °F /  13.2 °C 50 °F /  10.0 °C 30 in /  1016.1 hPa SW 5 mph /  8.0 km/h 15 mph /  24.1 km/h 81 % 0 in /  0.0 mm
01:32 55.8 °F /  13.2 °C 50 °F /  10.0 °C 30 in /  1015.8 hPa WSW 7 mph /  11.3 km/h 15 mph /  24.1 km/h 81 % 0 in /  0.0 mm
01:37 55.9 °F /  13.3 °C 50.2 °F /  10.1 °C 30 in /  1015.8 hPa SSW 6 mph /  9.7 km/h 15 mph /  24.1 km/h 81 % 0 in /  0.0 mm
01:42 56.1 °F /  13.4 °C 50 °F /  10.0 °C 30 in /  1015.8 hPa SSW 5 mph /  8.0 km/h 13 mph /  20.9 km/h 80 % 0 in /  0.0 mm
01:47 56.3 °F /  13.5 °C 50.2 °F /  10.1 °C 30 in /  1015.8 hPa SW 9 mph /  14.5 km/h 14 mph /  22.5 km/h 80 % 0 in /  0.0 mm
01:52 56.5 °F /  13.6 °C 50.4 °F /  10.2 °C 30 in /  1015.8 hPa South 8 mph /  12.9 km/h 17 mph /  27.4 km/h 80 % 0 in /  0.0 mm
01:57 56.5 °F /  13.6 °C 50 °F /  10.0 °C 30 in /  1015.8 hPa SSW 9 mph /  14.5 km/h 17 mph /  27.4 km/h 79 % 0 in /  0.0 mm
02:02 56.7 °F /  13.7 °C 50.2 °F /  10.1 °C 30 in /  1015.8 hPa SSE 7 mph /  11.3 km/h 17 mph /  27.4 km/h 79 % 0 in /  0.0 mm
02:07 56.8 °F /  13.8 °C 50.4 °F /  10.2 °C 30 in /  1015.5 hPa SW 11 mph /  17.7 km/h 17 mph /  27.4 km/h 79 % 0 in /  0.0 mm
02:12 56.8 °F /  13.8 °C 50.4 °F /  10.2 °C 30 in /  1015.5 hPa SSW 12 mph /  19.3 km/h 17 mph /  27.4 km/h 79 % 0 in /  0.0 mm
02:22 57 °F /  13.9 °C 50.5 °F /  10.3 °C 30 in /  1015.5 hPa SW 13 mph /  20.9 km/h 18 mph /  29.0 km/h 79 % 0 in /  0.0 mm
02:32 57 °F /  13.9 °C 50.5 °F /  10.3 °C 30 in /  1015.1 hPa SSW 13 mph /  20.9 km/h 20 mph /  32.2 km/h 79 % 0 in /  0.0 mm
02:37 57.4 °F /  14.1 °C 50.5 °F /  10.3 °C 30 in /  1015.1 hPa SW 12 mph /  19.3 km/h 20 mph /  32.2 km/h 78 % 0 in /  0.0 mm
02:42 57.4 °F /  14.1 °C 50.5 °F /  10.3 °C 30 in /  1015.1 hPa SW 12 mph /  19.3 km/h 22 mph /  35.4 km/h 78 % 0 in /  0.0 mm
02:52 57.2 °F /  14.0 °C 50.7 °F /  10.4 °C 30 in /  1015.1 hPa SSW 16 mph /  25.7 km/h 22 mph /  35.4 km/h 79 % 0 in /  0.0 mm
03:02 57 °F /  13.9 °C 50.5 °F /  10.3 °C 30 in /  1014.8 hPa WSW 12 mph /  19.3 km/h 18 mph /  29.0 km/h 79 % 0 in /  0.0 mm
03:12 56.7 °F /  13.7 °C 50.9 °F /  10.5 °C 30 in /  1014.8 hPa SSW 9 mph /  14.5 km/h 19 mph /  30.6 km/h 81 % 0 in /  0.0 mm
03:17 56.5 °F /  13.6 °C 51.1 °F /  10.6 °C 30 in /  1014.8 hPa SW 9 mph /  14.5 km/h 19 mph /  30.6 km/h 82 % 0 in /  0.0 mm
03:22 56.5 °F /  13.6 °C 51.1 °F /  10.6 °C 30 in /  1014.8 hPa South 8 mph /  12.9 km/h 19 mph /  30.6 km/h 82 % 0 in /  0.0 mm
03:32 56.5 °F /  13.6 °C 51.4 °F /  10.8 °C 30 in /  1014.4 hPa SW 7 mph /  11.3 km/h 17 mph /  27.4 km/h 83 % 0 in /  0.0 mm
03:42 56.7 °F /  13.7 °C 51.8 °F /  11.0 °C 30 in /  1014.4 hPa SSW 9 mph /  14.5 km/h 17 mph /  27.4 km/h 84 % 0 in /  0.0 mm
03:47 56.7 °F /  13.7 °C 51.8 °F /  11.0 °C 30 in /  1014.4 hPa SW 10 mph /  16.1 km/h 17 mph /  27.4 km/h 84 % 0 in /  0.0 mm
03:52 57 °F /  13.9 °C 52 °F /  11.1 °C 29.9 in /  1014.1 hPa SW 10 mph /  16.1 km/h 17 mph /  27.4 km/h 83 % 0 in /  0.0 mm
03:57 57.4 °F /  14.1 °C 52 °F /  11.1 °C 29.9 in /  1013.8 hPa SSW 11 mph /  17.7 km/h 19 mph /  30.6 km/h 82 % 0 in /  0.0 mm
04:02 57.4 °F /  14.1 °C 52.3 °F /  11.3 °C 29.9 in /  1013.8 hPa WSW 9 mph /  14.5 km/h 19 mph /  30.6 km/h 83 % 0 in /  0.0 mm
04:07 57.6 °F /  14.2 °C 52.7 °F /  11.5 °C 29.9 in /  1013.8 hPa SW 14 mph /  22.5 km/h 19 mph /  30.6 km/h 84 % 0 in /  0.0 mm
04:12 57.4 °F /  14.1 °C 52.9 °F /  11.6 °C 29.9 in /  1014.1 hPa SW 12 mph /  19.3 km/h 19 mph /  30.6 km/h 85 % 0 in /  0.0 mm
04:17 57.4 °F /  14.1 °C 53.2 °F /  11.8 °C 29.9 in /  1014.1 hPa SSW 12 mph /  19.3 km/h 22 mph /  35.4 km/h 86 % 0 in /  0.0 mm
04:22 57.4 °F /  14.1 °C 53.6 °F /  12.0 °C 29.9 in /  1014.1 hPa SW 9 mph /  14.5 km/h 22 mph /  35.4 km/h 87 % 0 in /  0.0 mm
04:27 57 °F /  13.9 °C 53.4 °F /  11.9 °C 29.9 in /  1013.8 hPa SSW 17 mph /  27.4 km/h 22 mph /  35.4 km/h 88 % 0 in /  0.0 mm
04:32 56.7 °F /  13.7 °C 53.8 °F /  12.1 °C 29.9 in /  1013.8 hPa WSW 10 mph /  16.1 km/h 25 mph /  40.2 km/h 90 % 0 in /  0.0 mm
04:37 56.5 °F /  13.6 °C 54 °F /  12.2 °C 29.9 in /  1013.8 hPa SSW 6 mph /  9.7 km/h 25 mph /  40.2 km/h 91 % 0 in /  0.0 mm
04:42 56.3 °F /  13.5 °C 54 °F /  12.2 °C 29.9 in /  1013.8 hPa SW 15 mph /  24.1 km/h 25 mph /  40.2 km/h 92 % 0.01 in /  0.3 mm
04:47 56.1 °F /  13.4 °C 53.8 °F /  12.1 °C 29.9 in /  1013.8 hPa SW 10 mph /  16.1 km/h 18 mph /  29.0 km/h 92 % 0.01 in /  0.3 mm
04:52 56.3 °F /  13.5 °C 54.3 °F /  12.4 °C 29.9 in /  1013.4 hPa SSW 9 mph /  14.5 km/h 18 mph /  29.0 km/h 93 % 0.01 in /  0.3 mm
04:57 56.3 °F /  13.5 °C 54.3 °F /  12.4 °C 29.9 in /  1013.4 hPa SSW 7 mph /  11.3 km/h 18 mph /  29.0 km/h 93 % 0.01 in /  0.3 mm
05:02 56.3 °F /  13.5 °C 54.3 °F /  12.4 °C 29.9 in /  1013.4 hPa SW 13 mph /  20.9 km/h 18 mph /  29.0 km/h 93 % 0.01 in /  0.3 mm
05:12 56.3 °F /  13.5 °C 54.3 °F /  12.4 °C 29.9 in /  1013.4 hPa SSW 6 mph /  9.7 km/h 18 mph /  29.0 km/h 93 % 0.01 in /  0.3 mm
05:22 56.3 °F /  13.5 °C 54.3 °F /  12.4 °C 29.9 in /  1013.4 hPa SSW 9 mph /  14.5 km/h 18 mph /  29.0 km/h 93 % 0.02 in /  0.5 mm
05:27 56.5 °F /  13.6 °C 54.5 °F /  12.5 °C 29.9 in /  1013.4 hPa SW 9 mph /  14.5 km/h 18 mph /  29.0 km/h 93 % 0.02 in /  0.5 mm
05:32 56.5 °F /  13.6 °C 54.5 °F /  12.5 °C 29.9 in /  1013.4 hPa WSW 8 mph /  12.9 km/h 18 mph /  29.0 km/h 93 % 0.02 in /  0.5 mm
05:37 56.5 °F /  13.6 °C 54.5 °F /  12.5 °C 29.9 in /  1013.4 hPa SSW 10 mph /  16.1 km/h 16 mph /  25.7 km/h 93 % 0.03 in /  0.8 mm
05:42 56.7 °F /  13.7 °C 54.3 °F /  12.4 °C 29.9 in /  1013.1 hPa SW 10 mph /  16.1 km/h 16 mph /  25.7 km/h 92 % 0.03 in /  0.8 mm
05:47 56.8 °F /  13.8 °C 54.5 °F /  12.5 °C 29.9 in /  1013.1 hPa SW 8 mph /  12.9 km/h 19 mph /  30.6 km/h 92 % 0.02 in /  0.5 mm
05:52 57 °F /  13.9 °C 54.7 °F /  12.6 °C 29.9 in /  1013.1 hPa SW 7 mph /  11.3 km/h 19 mph /  30.6 km/h 92 % 0.02 in /  0.5 mm
05:57 57.2 °F /  14.0 °C 54.7 °F /  12.6 °C 29.9 in /  1013.1 hPa SW 13 mph /  20.9 km/h 19 mph /  30.6 km/h 91 % 0.02 in /  0.5 mm
06:02 57.6 °F /  14.2 °C 55 °F /  12.8 °C 29.9 in /  1013.1 hPa SW 9 mph /  14.5 km/h 16 mph /  25.7 km/h 91 % 0.02 in /  0.5 mm
06:12 57.7 °F /  14.3 °C 55.2 °F /  12.9 °C 29.9 in /  1013.1 hPa SW 8 mph /  12.9 km/h 17 mph /  27.4 km/h 91 % 0.02 in /  0.5 mm
06:17 57.7 °F /  14.3 °C 55.2 °F /  12.9 °C 29.9 in /  1013.1 hPa WSW 9 mph /  14.5 km/h 19 mph /  30.6 km/h 91 % 0.02 in /  0.5 mm
06:22 57.7 °F /  14.3 °C 55.4 °F /  13.0 °C 29.9 in /  1013.1 hPa SW 15 mph /  24.1 km/h 19 mph /  30.6 km/h 92 % 0.02 in /  0.5 mm
06:32 57.7 °F /  14.3 °C 55.4 °F /  13.0 °C 29.9 in /  1013.1 hPa SW 12 mph /  19.3 km/h 22 mph /  35.4 km/h 92 % 0.02 in /  0.5 mm
06:37 57.7 °F /  14.3 °C 55.8 °F /  13.2 °C 29.9 in /  1013.1 hPa SSW 16 mph /  25.7 km/h 22 mph /  35.4 km/h 93 % 0.02 in /  0.5 mm
06:42 57.7 °F /  14.3 °C 55.8 °F /  13.2 °C 29.9 in /  1013.1 hPa SW 15 mph /  24.1 km/h 22 mph /  35.4 km/h 93 % 0.01 in /  0.3 mm
06:47 57.7 °F /  14.3 °C 55.8 °F /  13.2 °C 29.9 in /  1013.1 hPa SW 7 mph /  11.3 km/h 22 mph /  35.4 km/h 93 % 0.01 in /  0.3 mm
06:52 57.9 °F /  14.4 °C 55.9 °F /  13.3 °C 29.9 in /  1013.1 hPa WSW 14 mph /  22.5 km/h 21 mph /  33.8 km/h 93 % 0.02 in /  0.5 mm
06:57 57.7 °F /  14.3 °C 55.9 °F /  13.3 °C 29.9 in /  1013.1 hPa SW 11 mph /  17.7 km/h 21 mph /  33.8 km/h 94 % 0.02 in /  0.5 mm
07:02 57.9 °F /  14.4 °C 56.1 °F /  13.4 °C 29.9 in /  1013.1 hPa SSW 11 mph /  17.7 km/h 18 mph /  29.0 km/h 94 % 0.02 in /  0.5 mm
07:07 58.1 °F /  14.5 °C 56.3 °F /  13.5 °C 29.9 in /  1013.4 hPa SW 15 mph /  24.1 km/h 18 mph /  29.0 km/h 94 % 0.02 in /  0.5 mm
07:12 58.3 °F /  14.6 °C 56.5 °F /  13.6 °C 29.9 in /  1013.4 hPa SW 13 mph /  20.9 km/h 19 mph /  30.6 km/h 94 % 0.02 in /  0.5 mm
07:17 58.3 °F /  14.6 °C 56.5 °F /  13.6 °C 29.9 in /  1013.4 hPa WSW 14 mph /  22.5 km/h 21 mph /  33.8 km/h 94 % 0.02 in /  0.5 mm
07:22 58.3 °F /  14.6 °C 56.5 °F /  13.6 °C 29.9 in /  1013.4 hPa SW 12 mph /  19.3 km/h 21 mph /  33.8 km/h 94 % 0.02 in /  0.5 mm
07:32 58.5 °F /  14.7 °C 57 °F /  13.9 °C 29.9 in /  1013.4 hPa SSW 11 mph /  17.7 km/h 21 mph /  33.8 km/h 95 % 0.02 in /  0.5 mm
07:37 58.5 °F /  14.7 °C 57 °F /  13.9 °C 29.9 in /  1013.4 hPa West 11 mph /  17.7 km/h 19 mph /  30.6 km/h 95 % 0.02 in /  0.5 mm
07:42 58.6 °F /  14.8 °C 56.8 °F /  13.8 °C 29.9 in /  1013.4 hPa SW 17 mph /  27.4 km/h 19 mph /  30.6 km/h 94 % 0.02 in /  0.5 mm
07:47 58.6 °F /  14.8 °C 56.8 °F /  13.8 °C 29.9 in /  1013.4 hPa SW 10 mph /  16.1 km/h 22 mph /  35.4 km/h 94 % 0.02 in /  0.5 mm
07:52 58.6 °F /  14.8 °C 56.8 °F /  13.8 °C 29.9 in /  1013.4 hPa SW 7 mph /  11.3 km/h 22 mph /  35.4 km/h 94 % 0.02 in /  0.5 mm
07:57 58.6 °F /  14.8 °C 57.2 °F /  14.0 °C 29.9 in /  1013.4 hPa SW 12 mph /  19.3 km/h 22 mph /  35.4 km/h 95 % 0.01 in /  0.3 mm
08:02 58.6 °F /  14.8 °C 57.2 °F /  14.0 °C 29.9 in /  1013.4 hPa SW 11 mph /  17.7 km/h 22 mph /  35.4 km/h 95 % 0.01 in /  0.3 mm
08:12 58.8 °F /  14.9 °C 57.4 °F /  14.1 °C 29.9 in /  1013.8 hPa SW 8 mph /  12.9 km/h 21 mph /  33.8 km/h 95 % 0.01 in /  0.3 mm
08:17 58.8 °F /  14.9 °C 57.4 °F /  14.1 °C 29.9 in /  1013.8 hPa SW 13 mph /  20.9 km/h 19 mph /  30.6 km/h 95 % 0.02 in /  0.5 mm
08:22 58.8 °F /  14.9 °C 57.4 °F /  14.1 °C 29.9 in /  1013.8 hPa WSW 9 mph /  14.5 km/h 19 mph /  30.6 km/h 95 % 0.02 in /  0.5 mm
08:32 58.8 °F /  14.9 °C 57.4 °F /  14.1 °C 29.9 in /  1013.8 hPa SW 16 mph /  25.7 km/h 18 mph /  29.0 km/h 95 % 0.01 in /  0.3 mm
08:42 59.2 °F /  15.1 °C 58.1 °F /  14.5 °C 29.9 in /  1013.8 hPa SW 16 mph /  25.7 km/h 18 mph /  29.0 km/h 96 % 0.02 in /  0.5 mm
08:47 59.2 °F /  15.1 °C 58.1 °F /  14.5 °C 29.9 in /  1013.8 hPa SW 13 mph /  20.9 km/h 19 mph /  30.6 km/h 96 % 0.02 in /  0.5 mm
08:52 59.4 °F /  15.2 °C 58.3 °F /  14.6 °C 29.9 in /  1013.8 hPa SSW 6 mph /  9.7 km/h 19 mph /  30.6 km/h 96 % 0.02 in /  0.5 mm
08:57 59.4 °F /  15.2 °C 58.3 °F /  14.6 °C 29.9 in /  1013.8 hPa SW 12 mph /  19.3 km/h 19 mph /  30.6 km/h 96 % 0.02 in /  0.5 mm
09:02 59.5 °F /  15.3 °C 58.5 °F /  14.7 °C 29.9 in /  1013.8 hPa SW 9 mph /  14.5 km/h 18 mph /  29.0 km/h 96 % 0.02 in /  0.5 mm
09:12 59.7 °F /  15.4 °C 58.6 °F /  14.8 °C 29.9 in /  1014.1 hPa SW 6 mph /  9.7 km/h 17 mph /  27.4 km/h 96 % 0.01 in /  0.3 mm
09:17 59.7 °F /  15.4 °C 58.6 °F /  14.8 °C 29.9 in /  1014.1 hPa SSW 9 mph /  14.5 km/h 16 mph /  25.7 km/h 96 % 0.01 in /  0.3 mm
09:22 59.7 °F /  15.4 °C 58.6 °F /  14.8 °C 29.9 in /  1014.1 hPa SW 11 mph /  17.7 km/h 16 mph /  25.7 km/h 96 % 0.01 in /  0.3 mm
09:32 60.1 °F /  15.6 °C 59 °F /  15.0 °C 30 in /  1014.4 hPa SSW 10 mph /  16.1 km/h 16 mph /  25.7 km/h 96 % 0.01 in /  0.3 mm
09:42 60.3 °F /  15.7 °C 59.2 °F /  15.1 °C 30 in /  1014.4 hPa SW 9 mph /  14.5 km/h 19 mph /  30.6 km/h 96 % 0.01 in /  0.3 mm
09:52 60.3 °F /  15.7 °C 59.2 °F /  15.1 °C 30 in /  1014.4 hPa WSW 7 mph /  11.3 km/h 16 mph /  25.7 km/h 96 % 0.01 in /  0.3 mm
09:57 60.4 °F /  15.8 °C 59.4 °F /  15.2 °C 30 in /  1014.4 hPa West 6 mph /  9.7 km/h 16 mph /  25.7 km/h 96 % 0.01 in /  0.3 mm
10:02 60.4 °F /  15.8 °C 59.4 °F /  15.2 °C 30 in /  1014.4 hPa South 9 mph /  14.5 km/h 15 mph /  24.1 km/h 96 % 0.01 in /  0.3 mm
10:12 60.8 °F /  16.0 °C 59.7 °F /  15.4 °C 30 in /  1014.4 hPa WSW 9 mph /  14.5 km/h 12 mph /  19.3 km/h 96 % 0.01 in /  0.3 mm
10:17 61.2 °F /  16.2 °C 60.1 °F /  15.6 °C 30 in /  1014.4 hPa WSW 6 mph /  9.7 km/h 17 mph /  27.4 km/h 96 % 0.01 in /  0.3 mm
10:22 61.2 °F /  16.2 °C 60.1 °F /  15.6 °C 30 in /  1014.4 hPa WSW 14 mph /  22.5 km/h 17 mph /  27.4 km/h 96 % 0.01 in /  0.3 mm
10:27 61.3 °F /  16.3 °C 60.3 °F /  15.7 °C 30 in /  1014.4 hPa SW 14 mph /  22.5 km/h 17 mph /  27.4 km/h 96 % 0 in /  0.0 mm
10:32 61.5 °F /  16.4 °C 60.4 °F /  15.8 °C 30 in /  1014.4 hPa SW 7 mph /  11.3 km/h 19 mph /  30.6 km/h 96 % 0 in /  0.0 mm
10:42 62.1 °F /  16.7 °C 61 °F /  16.1 °C 30 in /  1014.4 hPa SW 12 mph /  19.3 km/h 17 mph /  27.4 km/h 96 % 0 in /  0.0 mm
10:47 62.1 °F /  16.7 °C 61 °F /  16.1 °C 30 in /  1014.8 hPa SW 6 mph /  9.7 km/h 17 mph /  27.4 km/h 96 % 0 in /  0.0 mm
10:52 62.2 °F /  16.8 °C 61.2 °F /  16.2 °C 30 in /  1014.8 hPa SSW 8 mph /  12.9 km/h 17 mph /  27.4 km/h 96 % 0.01 in /  0.3 mm
10:57 62.2 °F /  16.8 °C 61.2 °F /  16.2 °C 30 in /  1014.8 hPa WSW 10 mph /  16.1 km/h 19 mph /  30.6 km/h 96 % 0.01 in /  0.3 mm
11:02 62.2 °F /  16.8 °C 61.2 °F /  16.2 °C 30 in /  1014.8 hPa SW 6 mph /  9.7 km/h 19 mph /  30.6 km/h 96 % 0.01 in /  0.3 mm
11:12 62.2 °F /  16.8 °C 61.2 °F /  16.2 °C 30 in /  1014.8 hPa SSW 8 mph /  12.9 km/h 19 mph /  30.6 km/h 96 % 0.02 in /  0.5 mm
11:17 62.2 °F /  16.8 °C 61.2 °F /  16.2 °C 30 in /  1014.8 hPa SSW 6 mph /  9.7 km/h 18 mph /  29.0 km/h 96 % 0.02 in /  0.5 mm
11:22 62.4 °F /  16.9 °C 61.3 °F /  16.3 °C 30 in /  1014.8 hPa SSW 8 mph /  12.9 km/h 18 mph /  29.0 km/h 96 % 0.03 in /  0.8 mm
11:32 62.8 °F /  17.1 °C 61.7 °F /  16.5 °C 30 in /  1014.8 hPa SW 8 mph /  12.9 km/h 19 mph /  30.6 km/h 96 % 0.03 in /  0.8 mm
11:42 62.8 °F /  17.1 °C 61.7 °F /  16.5 °C 30 in /  1014.4 hPa WSW 14 mph /  22.5 km/h 19 mph /  30.6 km/h 96 % 0.04 in /  1.0 mm
11:47 62.8 °F /  17.1 °C 61.3 °F /  16.3 °C 30 in /  1014.4 hPa WSW 11 mph /  17.7 km/h 19 mph /  30.6 km/h 95 % 0.04 in /  1.0 mm
11:52 63 °F /  17.2 °C 61.5 °F /  16.4 °C 30 in /  1014.4 hPa WSW 14 mph /  22.5 km/h 19 mph /  30.6 km/h 95 % 0.04 in /  1.0 mm
12:02 63 °F /  17.2 °C 61.5 °F /  16.4 °C 30 in /  1014.4 hPa SW 9 mph /  14.5 km/h 19 mph /  30.6 km/h 95 % 0.05 in /  1.3 mm
12:12 63 °F /  17.2 °C 61.9 °F /  16.6 °C 30 in /  1014.4 hPa SW 13 mph /  20.9 km/h 17 mph /  27.4 km/h 96 % 0.04 in /  1.0 mm
12:17 63 °F /  17.2 °C 61.5 °F /  16.4 °C 30 in /  1014.4 hPa SW 9 mph /  14.5 km/h 21 mph /  33.8 km/h 95 % 0.04 in /  1.0 mm
12:22 63.1 °F /  17.3 °C 61.7 °F /  16.5 °C 30 in /  1014.4 hPa SW 13 mph /  20.9 km/h 21 mph /  33.8 km/h 95 % 0.04 in /  1.0 mm
12:32 63.5 °F /  17.5 °C 62.1 °F /  16.7 °C 30 in /  1014.4 hPa SW 10 mph /  16.1 km/h 21 mph /  33.8 km/h 95 % 0.03 in /  0.8 mm
12:42 63.9 °F /  17.7 °C 62.1 °F /  16.7 °C 30 in /  1014.4 hPa WSW 7 mph /  11.3 km/h 23 mph /  37.0 km/h 94 % 0.02 in /  0.5 mm
12:52 64.2 °F /  17.9 °C 62.2 °F /  16.8 °C 30 in /  1014.4 hPa SW 8 mph /  12.9 km/h 23 mph /  37.0 km/h 93 % 0.02 in /  0.5 mm
12:57 64.4 °F /  18.0 °C 62.4 °F /  16.9 °C 30 in /  1014.4 hPa SW 14 mph /  22.5 km/h 21 mph /  33.8 km/h 93 % 0.02 in /  0.5 mm
13:02 64.6 °F /  18.1 °C 62.4 °F /  16.9 °C 30 in /  1014.4 hPa WSW 15 mph /  24.1 km/h 21 mph /  33.8 km/h 93 % 0.02 in /  0.5 mm
13:12 64.9 °F /  18.3 °C 62.6 °F /  17.0 °C 30 in /  1014.4 hPa SW 10 mph /  16.1 km/h 20 mph /  32.2 km/h 92 % 0.01 in /  0.3 mm
13:17 65.1 °F /  18.4 °C 62.8 °F /  17.1 °C 30 in /  1014.4 hPa SSW 10 mph /  16.1 km/h 20 mph /  32.2 km/h 92 % 0 in /  0.0 mm
13:22 65.5 °F /  18.6 °C 62.8 °F /  17.1 °C 30 in /  1014.4 hPa SSW 13 mph /  20.9 km/h 21 mph /  33.8 km/h 91 % 0 in /  0.0 mm
13:27 65.8 °F /  18.8 °C 62.8 °F /  17.1 °C 30 in /  1014.4 hPa SW 11 mph /  17.7 km/h 21 mph /  33.8 km/h 90 % 0 in /  0.0 mm
13:32 66.2 °F /  19.0 °C 62.8 °F /  17.1 °C 29.9 in /  1014.1 hPa SW 17 mph /  27.4 km/h 21 mph /  33.8 km/h 89 % 0 in /  0.0 mm
13:37 66.4 °F /  19.1 °C 63 °F /  17.2 °C 30 in /  1014.4 hPa WSW 8 mph /  12.9 km/h 21 mph /  33.8 km/h 89 % 0 in /  0.0 mm
13:42 66.6 °F /  19.2 °C 63.1 °F /  17.3 °C 29.9 in /  1014.1 hPa WSW 6 mph /  9.7 km/h 23 mph /  37.0 km/h 89 % 0 in /  0.0 mm
13:47 66.7 °F /  19.3 °C 63.1 °F /  17.3 °C 30 in /  1014.4 hPa South 8 mph /  12.9 km/h 23 mph /  37.0 km/h 88 % 0 in /  0.0 mm
13:52 66.7 °F /  19.3 °C 62.8 °F /  17.1 °C 30 in /  1014.4 hPa WSW 14 mph /  22.5 km/h 22 mph /  35.4 km/h 87 % 0 in /  0.0 mm
14:02 66.9 °F /  19.4 °C 63 °F /  17.2 °C 29.9 in /  1014.1 hPa WSW 5 mph /  8.0 km/h 19 mph /  30.6 km/h 87 % 0 in /  0.0 mm
14:12 67.8 °F /  19.9 °C 63.1 °F /  17.3 °C 29.9 in /  1013.8 hPa West 10 mph /  16.1 km/h 22 mph /  35.4 km/h 85 % 0 in /  0.0 mm
14:17 68.4 °F /  20.2 °C 63.3 °F /  17.4 °C 29.9 in /  1013.8 hPa SSW 10 mph /  16.1 km/h 22 mph /  35.4 km/h 84 % 0 in /  0.0 mm
14:27 68.5 °F /  20.3 °C 63.1 °F /  17.3 °C 29.9 in /  1013.8 hPa SW 12 mph /  19.3 km/h 22 mph /  35.4 km/h 83 % 0 in /  0.0 mm
14:32 68.5 °F /  20.3 °C 62.8 °F /  17.1 °C 29.9 in /  1013.8 hPa SW 18 mph /  29.0 km/h 22 mph /  35.4 km/h 82 % 0 in /  0.0 mm
14:37 68.7 °F /  20.4 °C 63 °F /  17.2 °C 29.9 in /  1013.8 hPa WSW 12 mph /  19.3 km/h 22 mph /  35.4 km/h 82 % 0 in /  0.0 mm
14:42 68.9 °F /  20.5 °C 62.4 °F /  16.9 °C 29.9 in /  1013.8 hPa West 13 mph /  20.9 km/h 22 mph /  35.4 km/h 80 % 0 in /  0.0 mm
14:47 69.1 °F /  20.6 °C 62.2 °F /  16.8 °C 29.9 in /  1013.8 hPa WSW 23 mph /  37.0 km/h 24 mph /  38.6 km/h 79 % 0 in /  0.0 mm
14:57 69.4 °F /  20.8 °C 62.6 °F /  17.0 °C 29.9 in /  1013.8 hPa WSW 10 mph /  16.1 km/h 24 mph /  38.6 km/h 79 % 0 in /  0.0 mm
15:02 69.6 °F /  20.9 °C 62.1 °F /  16.7 °C 29.9 in /  1013.4 hPa WSW 17 mph /  27.4 km/h 23 mph /  37.0 km/h 77 % 0 in /  0.0 mm
15:12 70 °F /  21.1 °C 62.4 °F /  16.9 °C 29.9 in /  1013.4 hPa SW 10 mph /  16.1 km/h 24 mph /  38.6 km/h 77 % 0 in /  0.0 mm
15:17 70 °F /  21.1 °C 62.1 °F /  16.7 °C 29.9 in /  1013.4 hPa WSW 19 mph /  30.6 km/h 24 mph /  38.6 km/h 76 % 0 in /  0.0 mm
15:22 70 °F /  21.1 °C 62.1 °F /  16.7 °C 29.9 in /  1013.4 hPa SW 14 mph /  22.5 km/h 23 mph /  37.0 km/h 76 % 0 in /  0.0 mm
15:32 70.3 °F /  21.3 °C 62.4 °F /  16.9 °C 29.9 in /  1013.1 hPa WSW 12 mph /  19.3 km/h 26 mph /  41.8 km/h 76 % 0 in /  0.0 mm
15:37 70.5 °F /  21.4 °C 62.6 °F /  17.0 °C 29.9 in /  1013.1 hPa WNW 11 mph /  17.7 km/h 26 mph /  41.8 km/h 76 % 0 in /  0.0 mm
15:42 71.4 °F /  21.9 °C 62.8 °F /  17.1 °C 29.9 in /  1012.8 hPa WSW 13 mph /  20.9 km/h 26 mph /  41.8 km/h 74 % 0 in /  0.0 mm
15:47 72 °F /  22.2 °C 62.4 °F /  16.9 °C 29.9 in /  1012.8 hPa SW 16 mph /  25.7 km/h 32 mph /  51.5 km/h 72 % 0 in /  0.0 mm
15:52 72.1 °F /  22.3 °C 62.2 °F /  16.8 °C 29.9 in /  1012.8 hPa WSW 16 mph /  25.7 km/h 32 mph /  51.5 km/h 71 % 0 in /  0.0 mm
15:57 72.1 °F /  22.3 °C 61.9 °F /  16.6 °C 29.9 in /  1012.8 hPa SW 10 mph /  16.1 km/h 32 mph /  51.5 km/h 70 % 0 in /  0.0 mm
16:02 72.1 °F /  22.3 °C 61.9 °F /  16.6 °C 29.9 in /  1012.8 hPa WSW 23 mph /  37.0 km/h 32 mph /  51.5 km/h 70 % 0 in /  0.0 mm
16:12 72 °F /  22.2 °C 62.4 °F /  16.9 °C 29.9 in /  1012.8 hPa SW 14 mph /  22.5 km/h 31 mph /  49.9 km/h 72 % 0 in /  0.0 mm
16:17 72 °F /  22.2 °C 62.4 °F /  16.9 °C 29.9 in /  1012.8 hPa SSE 11 mph /  17.7 km/h 31 mph /  49.9 km/h 72 % 0 in /  0.0 mm
16:22 71.8 °F /  22.1 °C 62.2 °F /  16.8 °C 29.9 in /  1012.8 hPa WNW 9 mph /  14.5 km/h 26 mph /  41.8 km/h 72 % 0 in /  0.0 mm
16:27 71.6 °F /  22.0 °C 62.4 °F /  16.9 °C 29.9 in /  1012.8 hPa SW 17 mph /  27.4 km/h 26 mph /  41.8 km/h 73 % 0 in /  0.0 mm
16:32 71.6 °F /  22.0 °C 62.4 °F /  16.9 °C 29.9 in /  1012.8 hPa WSW 16 mph /  25.7 km/h 26 mph /  41.8 km/h 73 % 0 in /  0.0 mm
16:42 72 °F /  22.2 °C 62.4 °F /  16.9 °C 29.9 in /  1012.8 hPa WSW 16 mph /  25.7 km/h 27 mph /  43.4 km/h 72 % 0 in /  0.0 mm
16:47 72.1 °F /  22.3 °C 62.2 °F /  16.8 °C 29.9 in /  1012.8 hPa West 16 mph /  25.7 km/h 27 mph /  43.4 km/h 71 % 0 in /  0.0 mm
16:52 72.3 °F /  22.4 °C 62.1 °F /  16.7 °C 29.9 in /  1012.8 hPa SW 18 mph /  29.0 km/h 27 mph /  43.4 km/h 70 % 0 in /  0.0 mm
16:57 72.3 °F /  22.4 °C 62.1 °F /  16.7 °C 29.9 in /  1012.8 hPa WSW 11 mph /  17.7 km/h 27 mph /  43.4 km/h 70 % 0 in /  0.0 mm
17:02 72.3 °F /  22.4 °C 62.4 °F /  16.9 °C 29.9 in /  1012.8 hPa WSW 21 mph /  33.8 km/h 27 mph /  43.4 km/h 71 % 0 in /  0.0 mm
17:12 72.5 °F /  22.5 °C 61 °F /  16.1 °C 29.9 in /  1012.8 hPa WSW 27 mph /  43.4 km/h 27 mph /  43.4 km/h 67 % 0 in /  0.0 mm
17:17 72.7 °F /  22.6 °C 61.2 °F /  16.2 °C 29.9 in /  1012.8 hPa SW 16 mph /  25.7 km/h 28 mph /  45.1 km/h 67 % 0 in /  0.0 mm
17:22 72.9 °F /  22.7 °C 60.8 °F /  16.0 °C 29.9 in /  1012.8 hPa SSW 9 mph /  14.5 km/h 28 mph /  45.1 km/h 66 % 0 in /  0.0 mm
17:27 72.7 °F /  22.6 °C 61.2 °F /  16.2 °C 29.9 in /  1012.8 hPa West 13 mph /  20.9 km/h 28 mph /  45.1 km/h 67 % 0 in /  0.0 mm
17:32 72.5 °F /  22.5 °C 61.3 °F /  16.3 °C 29.9 in /  1012.8 hPa WSW 7 mph /  11.3 km/h 27 mph /  43.4 km/h 68 % 0 in /  0.0 mm
17:42 72.7 °F /  22.6 °C 60.6 °F /  15.9 °C 29.9 in /  1012.4 hPa SW 13 mph /  20.9 km/h 27 mph /  43.4 km/h 66 % 0 in /  0.0 mm
17:47 72.7 °F /  22.6 °C 60.6 °F /  15.9 °C 29.9 in /  1012.4 hPa SW 22 mph /  35.4 km/h 27 mph /  43.4 km/h 66 % 0 in /  0.0 mm
17:52 72.3 °F /  22.4 °C 60.3 °F /  15.7 °C 29.9 in /  1012.1 hPa West 20 mph /  32.2 km/h 29 mph /  46.7 km/h 66 % 0 in /  0.0 mm
17:57 72.1 °F /  22.3 °C 60.6 °F /  15.9 °C 29.9 in /  1012.4 hPa WSW 14 mph /  22.5 km/h 29 mph /  46.7 km/h 67 % 0 in /  0.0 mm
18:02 72.1 °F /  22.3 °C 61 °F /  16.1 °C 29.9 in /  1012.4 hPa WSW 11 mph /  17.7 km/h 29 mph /  46.7 km/h 68 % 0 in /  0.0 mm
18:12 72.3 °F /  22.4 °C 61.2 °F /  16.2 °C 29.9 in /  1012.1 hPa WSW 11 mph /  17.7 km/h 30 mph /  48.3 km/h 68 % 0 in /  0.0 mm
18:17 72.3 °F /  22.4 °C 60.3 °F /  15.7 °C 29.9 in /  1012.1 hPa WSW 12 mph /  19.3 km/h 30 mph /  48.3 km/h 66 % 0 in /  0.0 mm
18:22 72.1 °F /  22.3 °C 60.6 °F /  15.9 °C 29.9 in /  1012.1 hPa West 11 mph /  17.7 km/h 30 mph /  48.3 km/h 67 % 0 in /  0.0 mm
18:27 72 °F /  22.2 °C 60.4 °F /  15.8 °C 29.9 in /  1011.7 hPa WSW 12 mph /  19.3 km/h 30 mph /  48.3 km/h 67 % 0 in /  0.0 mm
18:32 71.8 °F /  22.1 °C 60.3 °F /  15.7 °C 29.9 in /  1011.7 hPa WSW 20 mph /  32.2 km/h 28 mph /  45.1 km/h 67 % 0 in /  0.0 mm
18:37 71.4 °F /  21.9 °C 60.8 °F /  16.0 °C 29.9 in /  1011.7 hPa WSW 16 mph /  25.7 km/h 33 mph /  53.1 km/h 69 % 0 in /  0.0 mm
18:42 71.2 °F /  21.8 °C 60.6 °F /  15.9 °C 29.9 in /  1011.7 hPa WSW 20 mph /  32.2 km/h 33 mph /  53.1 km/h 69 % 0 in /  0.0 mm
18:47 71.2 °F /  21.8 °C 61 °F /  16.1 °C 29.9 in /  1011.7 hPa West 15 mph /  24.1 km/h 29 mph /  46.7 km/h 70 % 0 in /  0.0 mm
18:52 71.1 °F /  21.7 °C 60.8 °F /  16.0 °C 29.9 in /  1011.7 hPa WSW 20 mph /  32.2 km/h 29 mph /  46.7 km/h 70 % 0 in /  0.0 mm
18:57 71.1 °F /  21.7 °C 61.2 °F /  16.2 °C 29.9 in /  1011.7 hPa SW 14 mph /  22.5 km/h 31 mph /  49.9 km/h 71 % 0 in /  0.0 mm
19:02 70.9 °F /  21.6 °C 60.6 °F /  15.9 °C 29.9 in /  1011.7 hPa SW 17 mph /  27.4 km/h 31 mph /  49.9 km/h 70 % 0 in /  0.0 mm
19:12 70.3 °F /  21.3 °C 60.4 °F /  15.8 °C 29.9 in /  1012.1 hPa SW 17 mph /  27.4 km/h 25 mph /  40.2 km/h 71 % 0 in /  0.0 mm
19:17 70.3 °F /  21.3 °C 60.4 °F /  15.8 °C 29.9 in /  1012.1 hPa WSW 24 mph /  38.6 km/h 28 mph /  45.1 km/h 71 % 0 in /  0.0 mm
19:22 70.2 °F /  21.2 °C 59.9 °F /  15.5 °C 29.9 in /  1012.1 hPa SW 11 mph /  17.7 km/h 29 mph /  46.7 km/h 70 % 0 in /  0.0 mm
19:27 70.2 °F /  21.2 °C 59.9 °F /  15.5 °C 29.9 in /  1012.1 hPa SW 26 mph /  41.8 km/h 35 mph /  56.3 km/h 70 % 0 in /  0.0 mm
19:32 70 °F /  21.1 °C 60.1 °F /  15.6 °C 29.9 in /  1012.1 hPa South 10 mph /  16.1 km/h 35 mph /  56.3 km/h 71 % 0 in /  0.0 mm
19:42 69.8 °F /  21.0 °C 59.9 °F /  15.5 °C 29.9 in /  1012.1 hPa SW 14 mph /  22.5 km/h 28 mph /  45.1 km/h 71 % 0 in /  0.0 mm
19:47 69.6 °F /  20.9 °C 59.7 °F /  15.4 °C 29.9 in /  1012.1 hPa West 23 mph /  37.0 km/h 26 mph /  41.8 km/h 71 % 0 in /  0.0 mm
19:52 69.6 °F /  20.9 °C 60.3 °F /  15.7 °C 29.9 in /  1012.1 hPa SW 8 mph /  12.9 km/h 30 mph /  48.3 km/h 72 % 0 in /  0.0 mm
20:02 69.4 °F /  20.8 °C 60.4 °F /  15.8 °C 29.9 in /  1011.7 hPa SW 14 mph /  22.5 km/h 30 mph /  48.3 km/h 73 % 0 in /  0.0 mm
20:12 69.3 °F /  20.7 °C 60.3 °F /  15.7 °C 29.9 in /  1011.7 hPa SW 24 mph /  38.6 km/h 30 mph /  48.3 km/h 73 % 0 in /  0.0 mm
20:17 69.3 °F /  20.7 °C 60.3 °F /  15.7 °C 29.9 in /  1012.1 hPa SW 14 mph /  22.5 km/h 30 mph /  48.3 km/h 73 % 0 in /  0.0 mm
20:22 69.1 °F /  20.6 °C 60.4 °F /  15.8 °C 29.9 in /  1012.1 hPa WSW 18 mph /  29.0 km/h 26 mph /  41.8 km/h 74 % 0 in /  0.0 mm
20:27 69.1 °F /  20.6 °C 60.4 °F /  15.8 °C 29.9 in /  1012.1 hPa WSW 14 mph /  22.5 km/h 26 mph /  41.8 km/h 74 % 0 in /  0.0 mm
20:32 68.9 °F /  20.5 °C 60.3 °F /  15.7 °C 29.9 in /  1011.7 hPa WSW 24 mph /  38.6 km/h 25 mph /  40.2 km/h 74 % 0 in /  0.0 mm
20:42 68.7 °F /  20.4 °C 60.4 °F /  15.8 °C 29.9 in /  1011.7 hPa SSW 12 mph /  19.3 km/h 26 mph /  41.8 km/h 75 % 0 in /  0.0 mm
20:47 68.7 °F /  20.4 °C 60.8 °F /  16.0 °C 29.9 in /  1012.1 hPa West 13 mph /  20.9 km/h 30 mph /  48.3 km/h 76 % 0 in /  0.0 mm
20:52 68.5 °F /  20.3 °C 60.6 °F /  15.9 °C 29.9 in /  1011.7 hPa WSW 16 mph /  25.7 km/h 30 mph /  48.3 km/h 76 % 0 in /  0.0 mm
21:02 68.4 °F /  20.2 °C 60.8 °F /  16.0 °C 29.9 in /  1012.1 hPa SW 8 mph /  12.9 km/h 27 mph /  43.4 km/h 77 % 0 in /  0.0 mm
21:12 68.2 °F /  20.1 °C 60.6 °F /  15.9 °C 29.9 in /  1011.7 hPa SW 16 mph /  25.7 km/h 27 mph /  43.4 km/h 77 % 0 in /  0.0 mm
21:17 67.8 °F /  19.9 °C 60.6 °F /  15.9 °C 29.9 in /  1012.1 hPa WSW 13 mph /  20.9 km/h 27 mph /  43.4 km/h 78 % 0 in /  0.0 mm
21:22 67.6 °F /  19.8 °C 60.6 °F /  15.9 °C 29.9 in /  1012.1 hPa SW 10 mph /  16.1 km/h 27 mph /  43.4 km/h 78 % 0 in /  0.0 mm
21:32 67.5 °F /  19.7 °C 60.8 °F /  16.0 °C 29.9 in /  1012.1 hPa SW 12 mph /  19.3 km/h 32 mph /  51.5 km/h 79 % 0 in /  0.0 mm
21:37 67.5 °F /  19.7 °C 60.8 °F /  16.0 °C 29.9 in /  1012.1 hPa WSW 14 mph /  22.5 km/h 32 mph /  51.5 km/h 79 % 0 in /  0.0 mm
21:42 67.3 °F /  19.6 °C 61 °F /  16.1 °C 29.9 in /  1011.7 hPa SW 17 mph /  27.4 km/h 32 mph /  51.5 km/h 80 % 0 in /  0.0 mm
21:47 67.3 °F /  19.6 °C 61 °F /  16.1 °C 29.9 in /  1012.1 hPa WSW 12 mph /  19.3 km/h 31 mph /  49.9 km/h 80 % 0 in /  0.0 mm
21:57 66.9 °F /  19.4 °C 61 °F /  16.1 °C 29.9 in /  1012.1 hPa SW 16 mph /  25.7 km/h 26 mph /  41.8 km/h 81 % 0 in /  0.0 mm
22:02 66.7 °F /  19.3 °C 60.8 °F /  16.0 °C 29.9 in /  1012.1 hPa West 10 mph /  16.1 km/h 28 mph /  45.1 km/h 81 % 0 in /  0.0 mm
22:07 66.4 °F /  19.1 °C 60.8 °F /  16.0 °C 29.9 in /  1012.1 hPa SW 11 mph /  17.7 km/h 28 mph /  45.1 km/h 82 % 0 in /  0.0 mm
22:12 66 °F /  18.9 °C 60.6 °F /  15.9 °C 29.9 in /  1012.1 hPa WSW 12 mph /  19.3 km/h 28 mph /  45.1 km/h 83 % 0 in /  0.0 mm
22:17 65.8 °F /  18.8 °C 60.8 °F /  16.0 °C 29.9 in /  1012.1 hPa SSE 16 mph /  25.7 km/h 24 mph /  38.6 km/h 84 % 0 in /  0.0 mm
22:22 65.8 °F /  18.8 °C 60.8 °F /  16.0 °C 29.9 in /  1012.1 hPa WSW 18 mph /  29.0 km/h 26 mph /  41.8 km/h 84 % 0 in /  0.0 mm
22:32 65.7 °F /  18.7 °C 61 °F /  16.1 °C 29.9 in /  1012.1 hPa South 7 mph /  11.3 km/h 27 mph /  43.4 km/h 85 % 0 in /  0.0 mm
22:42 65.3 °F /  18.5 °C 60.6 °F /  15.9 °C 29.9 in /  1012.1 hPa WSW 13 mph /  20.9 km/h 28 mph /  45.1 km/h 85 % 0 in /  0.0 mm
22:47 65.3 °F /  18.5 °C 60.6 °F /  15.9 °C 29.9 in /  1011.7 hPa SW 13 mph /  20.9 km/h 28 mph /  45.1 km/h 85 % 0 in /  0.0 mm
22:52 65.5 °F /  18.6 °C 60.8 °F /  16.0 °C 29.9 in /  1011.7 hPa SW 11 mph /  17.7 km/h 26 mph /  41.8 km/h 85 % 0 in /  0.0 mm
22:57 65.1 °F /  18.4 °C 60.8 °F /  16.0 °C 29.9 in /  1012.1 hPa SSW 8 mph /  12.9 km/h 26 mph /  41.8 km/h 86 % 0 in /  0.0 mm
23:02 64.9 °F /  18.3 °C 60.3 °F /  15.7 °C 29.9 in /  1012.1 hPa WSW 23 mph /  37.0 km/h 26 mph /  41.8 km/h 85 % 0 in /  0.0 mm
23:12 65.3 °F /  18.5 °C 60.1 °F /  15.6 °C 29.9 in /  1012.1 hPa WSW 23 mph /  37.0 km/h 26 mph /  41.8 km/h 83 % 0 in /  0.0 mm
23:17 65.3 °F /  18.5 °C 59.7 °F /  15.4 °C 29.9 in /  1011.7 hPa SSW 13 mph /  20.9 km/h 31 mph /  49.9 km/h 82 % 0 in /  0.0 mm
23:22 65.1 °F /  18.4 °C 59.2 °F /  15.1 °C 29.9 in /  1012.1 hPa WSW 21 mph /  33.8 km/h 31 mph /  49.9 km/h 81 % 0 in /  0.0 mm
23:27 65.1 °F /  18.4 °C 58.8 °F /  14.9 °C 29.9 in /  1011.7 hPa WSW 10 mph /  16.1 km/h 31 mph /  49.9 km/h 80 % 0 in /  0.0 mm
23:32 64.9 °F /  18.3 °C 58.6 °F /  14.8 °C 29.9 in /  1011.7 hPa SW 18 mph /  29.0 km/h 30 mph /  48.3 km/h 80 % 0 in /  0.0 mm
23:37 64.9 °F /  18.3 °C 59 °F /  15.0 °C 29.9 in /  1011.7 hPa SW 11 mph /  17.7 km/h 35 mph /  56.3 km/h 81 % 0 in /  0.0 mm
23:42 64.8 °F /  18.2 °C 59.2 °F /  15.1 °C 29.9 in /  1011.7 hPa WSW 13 mph /  20.9 km/h 35 mph /  56.3 km/h 82 % 0 in /  0.0 mm
23:47 64.6 °F /  18.1 °C 59.4 °F /  15.2 °C 29.9 in /  1011.7 hPa SW 16 mph /  25.7 km/h 35 mph /  56.3 km/h 83 % 0 in /  0.0 mm
23:57 64.2 °F /  17.9 °C 59.4 °F /  15.2 °C 29.9 in /  1011.4 hPa SSW 15 mph /  24.1 km/h 32 mph /  51.5 km/h 84 % 0 in /  0.0 mm
Meteo18
Compliments of Weather Underground - 4 mb

Script developed by  Jim McMurry - jmcmurry@mwt.net Adapted for the template by  Wim van der Kuil - Leuven-Template.eu

You find our weather info also at:

European Weather Network

Weather Underground

Equipment we use:

Weather-station
Davis Vue

Weather-program
Meteohub

Weather-server
Raspberry PI 2 B+

Provider
1 and 1

Davis Vue

Meteohub

Raspberry PI 2 B+

1 and 1